sensor_id;sensor_type;location;lat;lon;timestamp;temperature;humidity
19106;DHT22;9685;54.338;18.672;2023-08-30T00:02:23;20.50;1.00
19106;DHT22;9685;54.338;18.672;2023-08-30T00:04:50;20.40;1.00
19106;DHT22;9685;54.338;18.672;2023-08-30T00:07:17;20.40;1.00
19106;DHT22;9685;54.338;18.672;2023-08-30T00:09:44;20.40;1.00
19106;DHT22;9685;54.338;18.672;2023-08-30T00:12:11;20.40;1.00
19106;DHT22;9685;54.338;18.672;2023-08-30T00:14:38;20.40;1.00
19106;DHT22;9685;54.338;18.672;2023-08-30T00:17:06;20.30;1.00
19106;DHT22;9685;54.338;18.672;2023-08-30T00:19:33;20.30;1.00
19106;DHT22;9685;54.338;18.672;2023-08-30T00:22:00;20.30;1.00
19106;DHT22;9685;54.338;18.672;2023-08-30T00:24:27;20.30;1.00
19106;DHT22;9685;54.338;18.672;2023-08-30T00:26:54;20.30;1.00
19106;DHT22;9685;54.338;18.672;2023-08-30T00:29:21;20.20;85.80
19106;DHT22;9685;54.338;18.672;2023-08-30T00:31:48;20.10;99.90
19106;DHT22;9685;54.338;18.672;2023-08-30T00:34:16;20.10;1.00
19106;DHT22;9685;54.338;18.672;2023-08-30T00:36:43;20.00;1.00
19106;DHT22;9685;54.338;18.672;2023-08-30T00:39:10;20.00;1.00
19106;DHT22;9685;54.338;18.672;2023-08-30T00:41:37;20.00;1.00
19106;DHT22;9685;54.338;18.672;2023-08-30T00:44:04;20.00;1.00
19106;DHT22;9685;54.338;18.672;2023-08-30T00:46:31;20.10;1.00
19106;DHT22;9685;54.338;18.672;2023-08-30T00:48:59;20.10;1.00
19106;DHT22;9685;54.338;18.672;2023-08-30T00:51:28;20.20;1.00
19106;DHT22;9685;54.338;18.672;2023-08-30T00:53:55;20.20;99.90
19106;DHT22;9685;54.338;18.672;2023-08-30T00:56:22;20.20;99.90
19106;DHT22;9685;54.338;18.672;2023-08-30T00:58:49;20.20;99.90
19106;DHT22;9685;54.338;18.672;2023-08-30T01:01:17;20.20;1.00
19106;DHT22;9685;54.338;18.672;2023-08-30T01:03:44;20.20;1.00
19106;DHT22;9685;54.338;18.672;2023-08-30T01:06:11;20.20;1.00
19106;DHT22;9685;54.338;18.672;2023-08-30T01:08:41;20.20;99.90
19106;DHT22;9685;54.338;18.672;2023-08-30T01:11:13;20.20;99.90
19106;DHT22;9685;54.338;18.672;2023-08-30T01:13:46;20.30;99.90
19106;DHT22;9685;54.338;18.672;2023-08-30T01:16:14;20.20;99.90
19106;DHT22;9685;54.338;18.672;2023-08-30T01:18:43;20.30;99.90
19106;DHT22;9685;54.338;18.672;2023-08-30T01:21:19;20.30;99.90
19106;DHT22;9685;54.338;18.672;2023-08-30T01:23:56;20.30;99.90
19106;DHT22;9685;54.338;18.672;2023-08-30T01:26:29;20.20;99.90
19106;DHT22;9685;54.338;18.672;2023-08-30T01:29:04;20.20;1.00
19106;DHT22;9685;54.338;18.672;2023-08-30T01:31:33;20.30;99.90
19106;DHT22;9685;54.338;18.672;2023-08-30T01:34:01;20.30;99.90
19106;DHT22;9685;54.338;18.672;2023-08-30T01:36:30;20.20;1.00
19106;DHT22;9685;54.338;18.672;2023-08-30T01:38:58;20.30;99.90
19106;DHT22;9685;54.338;18.672;2023-08-30T01:41:26;20.30;99.90
19106;DHT22;9685;54.338;18.672;2023-08-30T01:43:54;20.30;99.90
19106;DHT22;9685;54.338;18.672;2023-08-30T01:46:24;20.30;99.90
19106;DHT22;9685;54.338;18.672;2023-08-30T01:48:52;20.30;99.90
19106;DHT22;9685;54.338;18.672;2023-08-30T01:51:20;20.20;99.90
19106;DHT22;9685;54.338;18.672;2023-08-30T01:53:48;20.30;99.90
19106;DHT22;9685;54.338;18.672;2023-08-30T01:56:15;20.30;99.90
19106;DHT22;9685;54.338;18.672;2023-08-30T01:58:42;20.30;99.90
19106;DHT22;9685;54.338;18.672;2023-08-30T02:01:09;20.40;99.90
19106;DHT22;9685;54.338;18.672;2023-08-30T02:03:39;20.40;36.80
19106;DHT22;9685;54.338;18.672;2023-08-30T02:06:08;20.40;14.50
19106;DHT22;9685;54.338;18.672;2023-08-30T02:08:40;20.30;1.00
19106;DHT22;9685;54.338;18.672;2023-08-30T02:11:13;20.20;99.90
19106;DHT22;9685;54.338;18.672;2023-08-30T02:13:41;20.20;99.90
19106;DHT22;9685;54.338;18.672;2023-08-30T02:16:09;20.20;99.90
19106;DHT22;9685;54.338;18.672;2023-08-30T02:18:39;20.10;99.90
19106;DHT22;9685;54.338;18.672;2023-08-30T02:21:06;20.10;99.90
19106;DHT22;9685;54.338;18.672;2023-08-30T02:23:33;20.10;1.00
19106;DHT22;9685;54.338;18.672;2023-08-30T02:26:01;20.10;1.00
19106;DHT22;9685;54.338;18.672;2023-08-30T02:28:29;20.10;1.00
19106;DHT22;9685;54.338;18.672;2023-08-30T02:30:56;20.10;1.00
19106;DHT22;9685;54.338;18.672;2023-08-30T02:33:23;20.10;1.00
19106;DHT22;9685;54.338;18.672;2023-08-30T02:35:51;20.10;1.00
19106;DHT22;9685;54.338;18.672;2023-08-30T02:38:19;20.00;1.00
19106;DHT22;9685;54.338;18.672;2023-08-30T02:40:46;20.00;1.00
19106;DHT22;9685;54.338;18.672;2023-08-30T02:43:13;20.00;1.00
19106;DHT22;9685;54.338;18.672;2023-08-30T02:45:40;20.00;1.00
19106;DHT22;9685;54.338;18.672;2023-08-30T02:48:07;20.00;1.00
19106;DHT22;9685;54.338;18.672;2023-08-30T02:50:34;20.00;1.00
19106;DHT22;9685;54.338;18.672;2023-08-30T02:53:02;20.00;10.30
19106;DHT22;9685;54.338;18.672;2023-08-30T02:55:30;20.00;1.00
19106;DHT22;9685;54.338;18.672;2023-08-30T02:57:57;20.10;1.00
19106;DHT22;9685;54.338;18.672;2023-08-30T03:00:24;20.10;1.00
19106;DHT22;9685;54.338;18.672;2023-08-30T03:02:51;20.20;1.00
19106;DHT22;9685;54.338;18.672;2023-08-30T03:05:18;20.20;99.90
19106;DHT22;9685;54.338;18.672;2023-08-30T03:07:45;20.20;1.00
19106;DHT22;9685;54.338;18.672;2023-08-30T03:10:14;20.20;1.00
19106;DHT22;9685;54.338;18.672;2023-08-30T03:12:41;20.20;1.00
19106;DHT22;9685;54.338;18.672;2023-08-30T03:15:08;20.20;99.90
19106;DHT22;9685;54.338;18.672;2023-08-30T03:17:35;20.20;99.90
19106;DHT22;9685;54.338;18.672;2023-08-30T03:20:03;20.20;99.90
19106;DHT22;9685;54.338;18.672;2023-08-30T03:22:31;20.20;99.90
19106;DHT22;9685;54.338;18.672;2023-08-30T03:24:57;20.10;1.00
19106;DHT22;9685;54.338;18.672;2023-08-30T03:27:26;20.00;1.00
19106;DHT22;9685;54.338;18.672;2023-08-30T03:29:54;19.90;99.90
19106;DHT22;9685;54.338;18.672;2023-08-30T03:32:21;19.90;35.30
19106;DHT22;9685;54.338;18.672;2023-08-30T03:34:49;20.00;1.00
19106;DHT22;9685;54.338;18.672;2023-08-30T03:37:16;20.00;1.00
19106;DHT22;9685;54.338;18.672;2023-08-30T03:39:43;20.10;1.00
19106;DHT22;9685;54.338;18.672;2023-08-30T03:42:10;20.10;1.00
19106;DHT22;9685;54.338;18.672;2023-08-30T03:44:39;20.10;99.90
19106;DHT22;9685;54.338;18.672;2023-08-30T03:47:06;20.00;99.90
19106;DHT22;9685;54.338;18.672;2023-08-30T03:49:33;20.00;99.90
19106;DHT22;9685;54.338;18.672;2023-08-30T03:52:00;20.10;99.90
19106;DHT22;9685;54.338;18.672;2023-08-30T03:54:27;20.20;99.90
19106;DHT22;9685;54.338;18.672;2023-08-30T03:56:54;20.10;94.60
19106;DHT22;9685;54.338;18.672;2023-08-30T03:59:21;20.10;5.50
19106;DHT22;9685;54.338;18.672;2023-08-30T04:01:50;20.20;1.00
19106;DHT22;9685;54.338;18.672;2023-08-30T04:04:17;20.20;1.00
19106;DHT22;9685;54.338;18.672;2023-08-30T04:06:44;20.20;1.00
19106;DHT22;9685;54.338;18.672;2023-08-30T04:09:11;20.20;1.00
19106;DHT22;9685;54.338;18.672;2023-08-30T04:11:38;20.20;1.00
19106;DHT22;9685;54.338;18.672;2023-08-30T04:14:05;20.20;1.00
19106;DHT22;9685;54.338;18.672;2023-08-30T04:16:32;20.20;1.00
19106;DHT22;9685;54.338;18.672;2023-08-30T04:19:00;20.10;1.00
19106;DHT22;9685;54.338;18.672;2023-08-30T04:21:27;20.10;1.00
19106;DHT22;9685;54.338;18.672;2023-08-30T04:23:54;20.10;1.00
19106;DHT22;9685;54.338;18.672;2023-08-30T04:26:21;20.10;1.00
19106;DHT22;9685;54.338;18.672;2023-08-30T04:28:48;20.10;1.00
19106;DHT22;9685;54.338;18.672;2023-08-30T04:31:15;20.20;1.00
19106;DHT22;9685;54.338;18.672;2023-08-30T04:33:42;20.30;1.00
19106;DHT22;9685;54.338;18.672;2023-08-30T04:36:10;20.30;1.00
19106;DHT22;9685;54.338;18.672;2023-08-30T04:38:37;20.20;1.00
19106;DHT22;9685;54.338;18.672;2023-08-30T04:41:04;20.20;99.90
19106;DHT22;9685;54.338;18.672;2023-08-30T04:43:31;20.20;1.00
19106;DHT22;9685;54.338;18.672;2023-08-30T04:45:58;20.30;1.00
19106;DHT22;9685;54.338;18.672;2023-08-30T04:48:24;20.30;1.00
19106;DHT22;9685;54.338;18.672;2023-08-30T04:50:58;20.30;99.90
19106;DHT22;9685;54.338;18.672;2023-08-30T04:53:27;20.20;1.00
19106;DHT22;9685;54.338;18.672;2023-08-30T04:55:54;20.20;1.00
19106;DHT22;9685;54.338;18.672;2023-08-30T04:58:21;20.20;1.00
19106;DHT22;9685;54.338;18.672;2023-08-30T05:00:48;20.20;1.00
19106;DHT22;9685;54.338;18.672;2023-08-30T05:03:15;20.10;1.00
19106;DHT22;9685;54.338;18.672;2023-08-30T05:05:45;20.00;1.00
19106;DHT22;9685;54.338;18.672;2023-08-30T05:08:12;19.90;1.00
19106;DHT22;9685;54.338;18.672;2023-08-30T05:10:40;19.90;1.00
19106;DHT22;9685;54.338;18.672;2023-08-30T05:13:08;19.90;1.00
19106;DHT22;9685;54.338;18.672;2023-08-30T05:15:36;19.90;1.00
19106;DHT22;9685;54.338;18.672;2023-08-30T05:18:04;19.80;1.00
19106;DHT22;9685;54.338;18.672;2023-08-30T05:20:31;19.70;99.90
19106;DHT22;9685;54.338;18.672;2023-08-30T05:22:58;19.70;1.00
19106;DHT22;9685;54.338;18.672;2023-08-30T05:25:25;19.60;99.90
19106;DHT22;9685;54.338;18.672;2023-08-30T05:27:53;19.60;99.90
19106;DHT22;9685;54.338;18.672;2023-08-30T05:30:20;19.60;99.90
19106;DHT22;9685;54.338;18.672;2023-08-30T05:32:47;19.60;69.30
19106;DHT22;9685;54.338;18.672;2023-08-30T05:35:14;19.80;99.90
19106;DHT22;9685;54.338;18.672;2023-08-30T05:37:41;19.80;1.00
19106;DHT22;9685;54.338;18.672;2023-08-30T05:40:08;19.80;95.00
19106;DHT22;9685;54.338;18.672;2023-08-30T05:42:36;19.90;1.00
19106;DHT22;9685;54.338;18.672;2023-08-30T05:45:05;20.00;1.00
19106;DHT22;9685;54.338;18.672;2023-08-30T05:47:33;20.10;1.00
19106;DHT22;9685;54.338;18.672;2023-08-30T05:50:00;20.20;1.00
19106;DHT22;9685;54.338;18.672;2023-08-30T05:52:26;20.30;1.00
19106;DHT22;9685;54.338;18.672;2023-08-30T05:54:53;20.30;1.00
19106;DHT22;9685;54.338;18.672;2023-08-30T05:57:20;20.10;99.90
19106;DHT22;9685;54.338;18.672;2023-08-30T05:59:49;20.10;1.00
19106;DHT22;9685;54.338;18.672;2023-08-30T06:02:17;20.20;1.00
19106;DHT22;9685;54.338;18.672;2023-08-30T06:04:44;20.20;1.00
19106;DHT22;9685;54.338;18.672;2023-08-30T06:07:12;20.10;99.90
19106;DHT22;9685;54.338;18.672;2023-08-30T06:09:39;20.10;1.00
19106;DHT22;9685;54.338;18.672;2023-08-30T06:12:07;20.20;1.00
19106;DHT22;9685;54.338;18.672;2023-08-30T06:14:34;20.10;99.90
19106;DHT22;9685;54.338;18.672;2023-08-30T06:17:01;20.20;99.90
19106;DHT22;9685;54.338;18.672;2023-08-30T06:19:29;20.20;99.90
19106;DHT22;9685;54.338;18.672;2023-08-30T06:21:56;20.20;99.90
19106;DHT22;9685;54.338;18.672;2023-08-30T06:24:23;20.20;99.90
19106;DHT22;9685;54.338;18.672;2023-08-30T06:26:50;20.20;99.90
19106;DHT22;9685;54.338;18.672;2023-08-30T06:29:17;20.30;99.90
19106;DHT22;9685;54.338;18.672;2023-08-30T06:31:43;20.40;99.90
19106;DHT22;9685;54.338;18.672;2023-08-30T06:34:11;20.30;99.90
19106;DHT22;9685;54.338;18.672;2023-08-30T06:36:39;20.30;99.90
19106;DHT22;9685;54.338;18.672;2023-08-30T06:39:06;20.30;34.00
19106;DHT22;9685;54.338;18.672;2023-08-30T06:41:33;20.20;99.90
19106;DHT22;9685;54.338;18.672;2023-08-30T06:44:00;20.00;99.90
19106;DHT22;9685;54.338;18.672;2023-08-30T06:46:27;19.90;99.90
19106;DHT22;9685;54.338;18.672;2023-08-30T06:48:54;19.90;99.90
19106;DHT22;9685;54.338;18.672;2023-08-30T06:51:21;20.10;99.90
19106;DHT22;9685;54.338;18.672;2023-08-30T06:53:51;20.10;99.90
19106;DHT22;9685;54.338;18.672;2023-08-30T06:56:17;20.00;99.90
19106;DHT22;9685;54.338;18.672;2023-08-30T06:58:44;20.20;99.90
19106;DHT22;9685;54.338;18.672;2023-08-30T07:01:11;20.30;99.90
19106;DHT22;9685;54.338;18.672;2023-08-30T07:03:38;20.50;99.90
19106;DHT22;9685;54.338;18.672;2023-08-30T07:06:06;20.60;6.10
19106;DHT22;9685;54.338;18.672;2023-08-30T07:08:32;20.70;1.00
19106;DHT22;9685;54.338;18.672;2023-08-30T07:11:01;20.60;1.00
19106;DHT22;9685;54.338;18.672;2023-08-30T07:13:28;20.50;1.00
19106;DHT22;9685;54.338;18.672;2023-08-30T07:15:55;20.50;1.00
19106;DHT22;9685;54.338;18.672;2023-08-30T07:18:22;20.60;1.00
19106;DHT22;9685;54.338;18.672;2023-08-30T07:20:49;20.70;1.00
19106;DHT22;9685;54.338;18.672;2023-08-30T07:23:16;20.70;1.00
19106;DHT22;9685;54.338;18.672;2023-08-30T07:25:43;20.70;1.00
19106;DHT22;9685;54.338;18.672;2023-08-30T07:28:11;20.70;1.00
19106;DHT22;9685;54.338;18.672;2023-08-30T07:30:38;20.90;1.00
19106;DHT22;9685;54.338;18.672;2023-08-30T07:33:05;21.10;1.00
19106;DHT22;9685;54.338;18.672;2023-08-30T07:35:32;21.30;1.00
19106;DHT22;9685;54.338;18.672;2023-08-30T07:37:59;21.30;1.00
19106;DHT22;9685;54.338;18.672;2023-08-30T07:40:26;21.20;1.00
19106;DHT22;9685;54.338;18.672;2023-08-30T07:42:54;21.20;1.00
19106;DHT22;9685;54.338;18.672;2023-08-30T07:45:22;21.30;1.00
19106;DHT22;9685;54.338;18.672;2023-08-30T07:47:49;21.30;1.00
19106;DHT22;9685;54.338;18.672;2023-08-30T07:50:16;21.30;1.00
19106;DHT22;9685;54.338;18.672;2023-08-30T07:52:44;21.30;1.00
19106;DHT22;9685;54.338;18.672;2023-08-30T07:55:12;21.30;99.90
19106;DHT22;9685;54.338;18.672;2023-08-30T07:57:39;21.10;1.00
19106;DHT22;9685;54.338;18.672;2023-08-30T08:00:07;20.90;1.00
19106;DHT22;9685;54.338;18.672;2023-08-30T08:02:35;21.00;1.00
19106;DHT22;9685;54.338;18.672;2023-08-30T08:05:02;20.70;1.00
19106;DHT22;9685;54.338;18.672;2023-08-30T08:07:29;20.70;1.00
19106;DHT22;9685;54.338;18.672;2023-08-30T08:09:56;20.80;1.00
19106;DHT22;9685;54.338;18.672;2023-08-30T08:12:23;20.90;1.00
19106;DHT22;9685;54.338;18.672;2023-08-30T08:14:51;20.80;1.00
19106;DHT22;9685;54.338;18.672;2023-08-30T08:17:18;20.80;1.00
19106;DHT22;9685;54.338;18.672;2023-08-30T08:19:46;20.80;1.00
19106;DHT22;9685;54.338;18.672;2023-08-30T08:22:13;21.00;1.00
19106;DHT22;9685;54.338;18.672;2023-08-30T08:24:40;21.10;1.00
19106;DHT22;9685;54.338;18.672;2023-08-30T08:27:07;21.20;1.00
19106;DHT22;9685;54.338;18.672;2023-08-30T08:29:34;21.30;1.00
19106;DHT22;9685;54.338;18.672;2023-08-30T08:32:01;21.40;1.00
19106;DHT22;9685;54.338;18.672;2023-08-30T08:34:28;21.40;99.90
19106;DHT22;9685;54.338;18.672;2023-08-30T08:36:56;21.50;1.00
19106;DHT22;9685;54.338;18.672;2023-08-30T08:39:23;21.70;1.00
19106;DHT22;9685;54.338;18.672;2023-08-30T08:41:51;21.80;99.90
19106;DHT22;9685;54.338;18.672;2023-08-30T08:44:19;21.90;99.90
19106;DHT22;9685;54.338;18.672;2023-08-30T08:46:48;21.90;99.90
19106;DHT22;9685;54.338;18.672;2023-08-30T08:49:17;22.10;99.90
19106;DHT22;9685;54.338;18.672;2023-08-30T08:51:44;22.30;99.90
19106;DHT22;9685;54.338;18.672;2023-08-30T08:54:13;22.40;99.90
19106;DHT22;9685;54.338;18.672;2023-08-30T08:56:40;22.20;99.90
19106;DHT22;9685;54.338;18.672;2023-08-30T08:59:07;22.30;99.90
19106;DHT22;9685;54.338;18.672;2023-08-30T09:01:35;22.30;99.90
19106;DHT22;9685;54.338;18.672;2023-08-30T09:04:05;22.40;99.90
19106;DHT22;9685;54.338;18.672;2023-08-30T09:06:33;22.10;99.90
19106;DHT22;9685;54.338;18.672;2023-08-30T09:09:01;22.00;99.90
19106;DHT22;9685;54.338;18.672;2023-08-30T09:11:30;22.00;99.90
19106;DHT22;9685;54.338;18.672;2023-08-30T09:13:57;22.00;99.90
19106;DHT22;9685;54.338;18.672;2023-08-30T09:16:24;21.90;99.90
19106;DHT22;9685;54.338;18.672;2023-08-30T09:18:57;22.00;99.90
19106;DHT22;9685;54.338;18.672;2023-08-30T09:21:25;22.20;99.90
19106;DHT22;9685;54.338;18.672;2023-08-30T09:23:59;22.10;99.90
19106;DHT22;9685;54.338;18.672;2023-08-30T09:26:27;22.20;99.90
19106;DHT22;9685;54.338;18.672;2023-08-30T09:28:56;22.40;99.90
19106;DHT22;9685;54.338;18.672;2023-08-30T09:31:23;22.60;99.90
19106;DHT22;9685;54.338;18.672;2023-08-30T09:33:58;22.80;99.90
19106;DHT22;9685;54.338;18.672;2023-08-30T09:36:32;22.70;99.90
19106;DHT22;9685;54.338;18.672;2023-08-30T09:38:59;22.80;99.90
19106;DHT22;9685;54.338;18.672;2023-08-30T09:41:29;22.80;99.90
19106;DHT22;9685;54.338;18.672;2023-08-30T09:43:58;23.00;99.90
19106;DHT22;9685;54.338;18.672;2023-08-30T09:46:25;23.20;99.90
19106;DHT22;9685;54.338;18.672;2023-08-30T09:48:53;23.30;99.90
19106;DHT22;9685;54.338;18.672;2023-08-30T09:51:24;23.30;99.90
19106;DHT22;9685;54.338;18.672;2023-08-30T09:53:54;23.30;99.90
19106;DHT22;9685;54.338;18.672;2023-08-30T09:56:23;23.10;99.90
19106;DHT22;9685;54.338;18.672;2023-08-30T09:58:50;23.10;99.90
19106;DHT22;9685;54.338;18.672;2023-08-30T10:01:18;23.10;99.90
19106;DHT22;9685;54.338;18.672;2023-08-30T10:03:46;23.10;99.90
19106;DHT22;9685;54.338;18.672;2023-08-30T10:06:14;23.00;99.90
19106;DHT22;9685;54.338;18.672;2023-08-30T10:08:41;22.90;99.90
19106;DHT22;9685;54.338;18.672;2023-08-30T10:11:09;22.90;99.90
19106;DHT22;9685;54.338;18.672;2023-08-30T10:13:41;23.00;99.90
19106;DHT22;9685;54.338;18.672;2023-08-30T10:16:12;23.00;99.90
19106;DHT22;9685;54.338;18.672;2023-08-30T10:18:43;22.90;99.90
19106;DHT22;9685;54.338;18.672;2023-08-30T10:21:12;22.80;99.90
19106;DHT22;9685;54.338;18.672;2023-08-30T10:23:40;22.70;99.90
19106;DHT22;9685;54.338;18.672;2023-08-30T10:26:07;22.60;99.90
19106;DHT22;9685;54.338;18.672;2023-08-30T10:28:35;22.50;99.90
19106;DHT22;9685;54.338;18.672;2023-08-30T10:31:03;22.60;99.90
19106;DHT22;9685;54.338;18.672;2023-08-30T10:33:30;22.60;99.90
19106;DHT22;9685;54.338;18.672;2023-08-30T10:36:05;22.50;99.90
19106;DHT22;9685;54.338;18.672;2023-08-30T10:38:33;22.50;99.90
19106;DHT22;9685;54.338;18.672;2023-08-30T10:41:07;22.40;99.90
19106;DHT22;9685;54.338;18.672;2023-08-30T10:43:35;22.40;99.90
19106;DHT22;9685;54.338;18.672;2023-08-30T10:46:04;22.40;99.90
19106;DHT22;9685;54.338;18.672;2023-08-30T10:48:36;22.30;99.90
19106;DHT22;9685;54.338;18.672;2023-08-30T10:51:18;22.30;99.90
19106;DHT22;9685;54.338;18.672;2023-08-30T10:53:55;22.30;99.90
19106;DHT22;9685;54.338;18.672;2023-08-30T10:56:27;22.30;99.90
19106;DHT22;9685;54.338;18.672;2023-08-30T10:58:54;22.30;99.90
19106;DHT22;9685;54.338;18.672;2023-08-30T11:01:21;22.20;99.90
19106;DHT22;9685;54.338;18.672;2023-08-30T11:03:49;21.90;99.90
19106;DHT22;9685;54.338;18.672;2023-08-30T11:06:18;21.70;99.90
19106;DHT22;9685;54.338;18.672;2023-08-30T11:08:47;21.60;99.90
19106;DHT22;9685;54.338;18.672;2023-08-30T11:11:15;21.60;99.90
19106;DHT22;9685;54.338;18.672;2023-08-30T11:13:42;21.40;99.90
19106;DHT22;9685;54.338;18.672;2023-08-30T11:16:09;21.30;99.90
19106;DHT22;9685;54.338;18.672;2023-08-30T11:18:37;21.30;99.90
19106;DHT22;9685;54.338;18.672;2023-08-30T11:21:05;21.00;99.90
19106;DHT22;9685;54.338;18.672;2023-08-30T11:23:34;21.00;99.90
19106;DHT22;9685;54.338;18.672;2023-08-30T11:26:01;21.00;99.90
19106;DHT22;9685;54.338;18.672;2023-08-30T11:28:30;20.90;99.90
19106;DHT22;9685;54.338;18.672;2023-08-30T11:30:57;21.00;99.90
19106;DHT22;9685;54.338;18.672;2023-08-30T11:33:24;20.90;99.90
19106;DHT22;9685;54.338;18.672;2023-08-30T11:35:51;21.10;99.90
19106;DHT22;9685;54.338;18.672;2023-08-30T11:38:19;21.20;99.90
19106;DHT22;9685;54.338;18.672;2023-08-30T11:40:50;21.20;99.90
19106;DHT22;9685;54.338;18.672;2023-08-30T11:43:18;21.00;99.90
19106;DHT22;9685;54.338;18.672;2023-08-30T11:45:46;20.90;99.90
19106;DHT22;9685;54.338;18.672;2023-08-30T11:48:13;20.80;99.90
19106;DHT22;9685;54.338;18.672;2023-08-30T11:50:41;20.80;99.90
19106;DHT22;9685;54.338;18.672;2023-08-30T11:53:09;20.80;99.90
19106;DHT22;9685;54.338;18.672;2023-08-30T11:55:36;20.80;99.90
19106;DHT22;9685;54.338;18.672;2023-08-30T11:58:05;21.00;99.90
19106;DHT22;9685;54.338;18.672;2023-08-30T12:00:33;21.20;99.90
19106;DHT22;9685;54.338;18.672;2023-08-30T12:03:01;21.30;99.90
19106;DHT22;9685;54.338;18.672;2023-08-30T12:05:28;21.50;99.90
19106;DHT22;9685;54.338;18.672;2023-08-30T12:07:59;21.50;99.90
19106;DHT22;9685;54.338;18.672;2023-08-30T12:10:28;21.60;99.90
19106;DHT22;9685;54.338;18.672;2023-08-30T12:12:55;21.70;99.90
19106;DHT22;9685;54.338;18.672;2023-08-30T12:15:24;21.80;99.90
19106;DHT22;9685;54.338;18.672;2023-08-30T12:17:53;21.90;99.90
19106;DHT22;9685;54.338;18.672;2023-08-30T12:20:20;21.90;99.90
19106;DHT22;9685;54.338;18.672;2023-08-30T12:22:49;21.90;99.90
19106;DHT22;9685;54.338;18.672;2023-08-30T12:25:17;21.80;99.90
19106;DHT22;9685;54.338;18.672;2023-08-30T12:27:44;21.80;99.90
19106;DHT22;9685;54.338;18.672;2023-08-30T12:30:12;21.80;99.90
19106;DHT22;9685;54.338;18.672;2023-08-30T12:32:41;21.80;99.90
19106;DHT22;9685;54.338;18.672;2023-08-30T12:35:08;21.70;99.90
19106;DHT22;9685;54.338;18.672;2023-08-30T12:37:35;21.60;99.90
19106;DHT22;9685;54.338;18.672;2023-08-30T12:40:03;21.70;99.90
19106;DHT22;9685;54.338;18.672;2023-08-30T12:42:30;21.70;99.90
19106;DHT22;9685;54.338;18.672;2023-08-30T12:44:57;21.70;99.90
19106;DHT22;9685;54.338;18.672;2023-08-30T12:47:24;21.70;99.90
19106;DHT22;9685;54.338;18.672;2023-08-30T12:49:52;21.70;99.90
19106;DHT22;9685;54.338;18.672;2023-08-30T12:52:20;21.70;99.90
19106;DHT22;9685;54.338;18.672;2023-08-30T12:54:47;21.60;99.90
19106;DHT22;9685;54.338;18.672;2023-08-30T12:57:14;21.70;99.90
19106;DHT22;9685;54.338;18.672;2023-08-30T12:59:41;21.70;99.90
19106;DHT22;9685;54.338;18.672;2023-08-30T13:02:08;21.60;99.90
19106;DHT22;9685;54.338;18.672;2023-08-30T13:04:35;21.60;99.90
19106;DHT22;9685;54.338;18.672;2023-08-30T13:07:04;21.60;99.90
19106;DHT22;9685;54.338;18.672;2023-08-30T13:09:31;21.60;99.90
19106;DHT22;9685;54.338;18.672;2023-08-30T13:11:58;21.60;99.90
19106;DHT22;9685;54.338;18.672;2023-08-30T13:14:25;21.60;99.90
19106;DHT22;9685;54.338;18.672;2023-08-30T13:16:52;21.70;99.90
19106;DHT22;9685;54.338;18.672;2023-08-30T13:19:19;21.60;99.90
19106;DHT22;9685;54.338;18.672;2023-08-30T13:21:46;21.50;99.90
19106;DHT22;9685;54.338;18.672;2023-08-30T13:24:14;21.50;99.90
19106;DHT22;9685;54.338;18.672;2023-08-30T13:26:41;21.60;99.90
19106;DHT22;9685;54.338;18.672;2023-08-30T13:29:08;21.60;99.90
19106;DHT22;9685;54.338;18.672;2023-08-30T13:31:35;21.60;99.90
19106;DHT22;9685;54.338;18.672;2023-08-30T13:34:02;21.70;99.90
19106;DHT22;9685;54.338;18.672;2023-08-30T13:36:29;21.70;99.90
19106;DHT22;9685;54.338;18.672;2023-08-30T13:38:56;21.70;99.90
19106;DHT22;9685;54.338;18.672;2023-08-30T13:41:24;21.70;99.90
19106;DHT22;9685;54.338;18.672;2023-08-30T13:43:51;21.70;99.90
19106;DHT22;9685;54.338;18.672;2023-08-30T13:46:19;21.70;99.90
19106;DHT22;9685;54.338;18.672;2023-08-30T13:48:46;21.80;99.90
19106;DHT22;9685;54.338;18.672;2023-08-30T13:51:13;21.80;99.90
19106;DHT22;9685;54.338;18.672;2023-08-30T13:53:40;21.90;99.90
19106;DHT22;9685;54.338;18.672;2023-08-30T13:56:07;21.90;99.90
19106;DHT22;9685;54.338;18.672;2023-08-30T13:58:35;21.90;99.90
19106;DHT22;9685;54.338;18.672;2023-08-30T14:01:02;22.00;99.90
19106;DHT22;9685;54.338;18.672;2023-08-30T14:03:30;22.00;99.90
19106;DHT22;9685;54.338;18.672;2023-08-30T14:05:57;21.90;99.90
19106;DHT22;9685;54.338;18.672;2023-08-30T14:08:24;21.70;99.90
19106;DHT22;9685;54.338;18.672;2023-08-30T14:10:51;21.80;99.90
19106;DHT22;9685;54.338;18.672;2023-08-30T14:13:18;21.80;99.90
19106;DHT22;9685;54.338;18.672;2023-08-30T14:15:46;22.00;99.90
19106;DHT22;9685;54.338;18.672;2023-08-30T14:18:14;22.20;99.90
19106;DHT22;9685;54.338;18.672;2023-08-30T14:20:41;22.30;99.90
19106;DHT22;9685;54.338;18.672;2023-08-30T14:23:08;22.40;99.90
19106;DHT22;9685;54.338;18.672;2023-08-30T14:25:35;22.20;99.90
19106;DHT22;9685;54.338;18.672;2023-08-30T14:28:03;22.40;99.90
19106;DHT22;9685;54.338;18.672;2023-08-30T14:30:30;22.40;99.90
19106;DHT22;9685;54.338;18.672;2023-08-30T14:32:58;22.50;99.90
19106;DHT22;9685;54.338;18.672;2023-08-30T14:35:25;22.60;99.90
19106;DHT22;9685;54.338;18.672;2023-08-30T14:37:53;22.80;99.90
19106;DHT22;9685;54.338;18.672;2023-08-30T14:40:20;22.90;99.90
19106;DHT22;9685;54.338;18.672;2023-08-30T14:42:47;22.80;99.90
19106;DHT22;9685;54.338;18.672;2023-08-30T14:45:14;22.80;99.90
19106;DHT22;9685;54.338;18.672;2023-08-30T14:47:43;22.80;99.90
19106;DHT22;9685;54.338;18.672;2023-08-30T14:50:11;22.90;99.90
19106;DHT22;9685;54.338;18.672;2023-08-30T14:52:38;22.90;99.90
19106;DHT22;9685;54.338;18.672;2023-08-30T14:55:06;23.10;99.90
19106;DHT22;9685;54.338;18.672;2023-08-30T14:57:33;23.20;99.90
19106;DHT22;9685;54.338;18.672;2023-08-30T15:00:00;23.20;99.90
19106;DHT22;9685;54.338;18.672;2023-08-30T15:02:27;23.20;99.90
19106;DHT22;9685;54.338;18.672;2023-08-30T15:04:56;23.20;99.90
19106;DHT22;9685;54.338;18.672;2023-08-30T15:07:25;23.10;99.90
19106;DHT22;9685;54.338;18.672;2023-08-30T15:09:52;23.00;99.90
19106;DHT22;9685;54.338;18.672;2023-08-30T15:12:19;22.90;99.90
19106;DHT22;9685;54.338;18.672;2023-08-30T15:14:46;22.80;99.90
19106;DHT22;9685;54.338;18.672;2023-08-30T15:17:14;22.70;99.90
19106;DHT22;9685;54.338;18.672;2023-08-30T15:19:41;22.60;99.90
19106;DHT22;9685;54.338;18.672;2023-08-30T15:22:08;22.60;99.90
19106;DHT22;9685;54.338;18.672;2023-08-30T15:24:36;22.60;99.90
19106;DHT22;9685;54.338;18.672;2023-08-30T15:27:04;22.60;99.90
19106;DHT22;9685;54.338;18.672;2023-08-30T15:29:31;22.60;99.90
19106;DHT22;9685;54.338;18.672;2023-08-30T15:31:58;22.40;99.90
19106;DHT22;9685;54.338;18.672;2023-08-30T15:34:25;22.40;99.90
19106;DHT22;9685;54.338;18.672;2023-08-30T15:36:52;22.40;99.90
19106;DHT22;9685;54.338;18.672;2023-08-30T15:39:19;22.30;99.90